WetterOnline ( http://www.wetteronline.de )

Wetter aktuell Berlin

Aktuelles Wetter: Berlin-Dahlem (70m)

6-stündlich | Neueste Meldungen
Ortszeit Temperatur Wetter
Mo, 17.12. 7:00 -0.5° C bewölkt
Mo, 17.12. 1:00 -1.2° C bedeckt
So, 16.12. 19:00 -1.1° C wolkig
So, 16.12. 13:00 -0.1° C bedeckt
So, 16.12. 7:00 -0.4° C bedeckt
So, 16.12. 1:00 0.1° C bedeckt
Sa, 15.12. 19:00 0.3° C leichter Schneefall
Sa, 15.12. 13:00 0.6° C bedeckt
Ortszeit Temperatur Wetter
Mo, 17.12. 12:00 1.2° C leichter Schneefall
Mo, 17.12. 11:00 0.8° C Schneegriesel
Mo, 17.12. 10:00 0.1° C bewölkt
Mo, 17.12. 9:00 -0.3° C bewölkt
Mo, 17.12. 8:00 -0.5° C bewölkt
Mo, 17.12. 7:00 -0.5° C bewölkt
Ortszeit Relative Feuchte Sichtweite
Mo, 17.12. 7:00 92% 13 km
Mo, 17.12. 1:00 92% 9 km
So, 16.12. 19:00 78% 26 km
So, 16.12. 13:00 69% 25 km
So, 16.12. 7:00 80% 25 km
So, 16.12. 1:00 93% 9 km
Sa, 15.12. 19:00 87% 11 km
Sa, 15.12. 13:00 83% 25 km
Ortszeit Relative Feuchte Sichtweite
Mo, 17.12. 12:00 90% 7 km
Mo, 17.12. 11:00 89% 8 km
Mo, 17.12. 10:00 90% 11 km
Mo, 17.12. 9:00 92% 8 km
Mo, 17.12. 8:00 92% 8 km
Mo, 17.12. 7:00 92% 13 km
Ortszeit Niederschlagsmenge Niederschlagsart
Mo, 17.12. 7:00 0.1 l/m2 in 12 Std. -
Mo, 17.12. 1:00 0.1 l/m2 in 6 Std. Schnee
So, 16.12. 19:00 0.0 l/m2 in 12 Std. -
So, 16.12. 13:00 0.0 l/m2 in 6 Std. -
So, 16.12. 7:00 0.1 l/m2 in 12 Std. Schnee
So, 16.12. 1:00 0.1 l/m2 in 6 Std. Schnee
Sa, 15.12. 19:00 0.1 l/m2 in 12 Std. Schnee
Sa, 15.12. 13:00 0.1 l/m2 in 6 Std. -
Ortszeit Niederschlagsmenge Niederschlagsart
Mo, 17.12. 12:00 keine Meldung -
Mo, 17.12. 11:00 keine Meldung -
Mo, 17.12. 10:00 keine Meldung -
Mo, 17.12. 9:00 keine Meldung -
Mo, 17.12. 8:00 keine Meldung -
Mo, 17.12. 7:00 keine Meldung -
Ortszeit Stärke Spitze Richtung
km/h Bft. km/h Grad Sektor
Mo, 17.12. 7:00 7 2 - 200° S
Mo, 17.12. 1:00 7 2 - 180° S
So, 16.12. 19:00 11 2 - 140° SO
So, 16.12. 13:00 18 3 - 160° S
So, 16.12. 7:00 14 3 - 130° SO
So, 16.12. 1:00 14 3 - 120° SO
Sa, 15.12. 19:00 11 2 - 110° O
Sa, 15.12. 13:00 14 3 - 90° O
Ortszeit Stärke Spitze Richtung
km/h Bft. km/h Grad Sektor
Mo, 17.12. 12:00 4 1 - 200° S
Mo, 17.12. 11:00 4 1 - 200° S
Mo, 17.12. 10:00 4 1 - 220° SW
Mo, 17.12. 9:00 4 1 - 180° S
Mo, 17.12. 8:00 7 2 - 210° SW
Mo, 17.12. 7:00 7 2 - 200° S
Ortszeit Untergrenze Bedeckung Gattung
total tief tief mittel hoch
Mo, 17.12. 7:00 780 m 7/8 7/8 Sc - -
Mo, 17.12. 1:00 300 m 8/8 8/8 Sc - -
So, 16.12. 19:00 2700 m 7/8 7/8 - Ac Cs
So, 16.12. 13:00 780 m 8/8 7/8 Sc - -
So, 16.12. 7:00 330 m 8/8 7/8 Sc - -
So, 16.12. 1:00 180 m 8/8 7/8 St - -
Sa, 15.12. 19:00 420 m 8/8 7/8 Sc - -
Sa, 15.12. 13:00 390 m 8/8 7/8 Cu - -
Ortszeit Bedeckungsgrad in Achtel und Wolkenuntergrenze
Mo, 17.12. 12:00 5(330m) 7(1380m)
Mo, 17.12. 11:00 3(330m) 7(1200m)
Mo, 17.12. 10:00 3(300m) 7(1500m)
Mo, 17.12. 9:00 1(480m) 7(1350m)
Mo, 17.12. 8:00 7(1350m)
Mo, 17.12. 7:00 1(780m) 7(1380m)
Ortszeit Luftdruck NN (hPa) Tendenz (hPa in 3 Std.)
Mo, 17.12. 7:00 1018 + 1,3
Mo, 17.12. 1:00 1016 keine Meldung
So, 16.12. 19:00 1015 + 0,3
So, 16.12. 13:00 1016 - 2,2
So, 16.12. 7:00 1019 - 2,3
So, 16.12. 1:00 1023 - 2,4
Sa, 15.12. 19:00 1027 - 1,3
Sa, 15.12. 13:00 1029 - 1,0
Ortszeit Luftdruck NN (hPa) Tendenz (hPa in 3 Std.)
Mo, 17.12. 12:00 1021 + 1,1
Mo, 17.12. 11:00 1021 + 1,8
Mo, 17.12. 10:00 1020 + 2,0
Mo, 17.12. 9:00 1020 + 2,1
Mo, 17.12. 8:00 1019 + 1,8
Mo, 17.12. 7:00 1018 + 1,3
Ortszeit Schneehöhe (cm)
Mo, 17.12. 7:00 0
Mo, 17.12. 1:00 0
So, 16.12. 19:00 0
So, 16.12. 13:00 0
So, 16.12. 7:00 0
So, 16.12. 1:00 0
Sa, 15.12. 19:00 0
Sa, 15.12. 13:00 0
Ortszeit Schneehöhe (cm)
Mo, 17.12. 12:00 -
Mo, 17.12. 11:00 -
Mo, 17.12. 10:00 -
Mo, 17.12. 9:00 -
Mo, 17.12. 8:00 -
Mo, 17.12. 7:00 0
Link zu dieser Seite / Seite empfehlen

Das Wetter in ...